Time;durP1;ratioP1;P1;durP2;ratioP2;P2;SDS_P1;SDS_P2;PMS_P1;PMS_P2;Temp;Humidity;BMP_temperature;BMP_pressure;BME280_temperature;BME280_humidity;BME280_pressure;Samples;Min_cycle;Max_cycle;Signal;HPM_P1;HPM_P2
2024/03/10 00:00:14;;;;;;;10.80;8.35;;;;;;;;;;484314;28;1253;-75
2024/03/10 00:00:39;;;;;;;10.57;8.40;;;;;;;;;;492033;28;1135;-75
2024/03/10 00:01:01;;;;;;;10.73;8.40;;;;;;;;;;488702;28;1320;-75
2024/03/10 00:01:18;;;;;;;11.32;8.48;;;;;;;;;;490063;28;1337;-75
2024/03/10 00:01:37;;;;;;;10.55;8.70;;;;;;;;;;493687;28;1112;-74
2024/03/10 00:01:58;;;;;;;10.55;8.98;;;;;;;;;;490504;28;1085;-74
2024/03/10 00:02:14;;;;;;;10.55;8.80;;;;;;;;;;490425;28;1630;-74
2024/03/10 00:02:30;;;;;;;10.40;8.75;;;;;;;;;;495434;28;1424;-74
2024/03/10 00:02:49;;;;;;;10.82;8.63;;;;;;;;;;487821;28;1353;-75
2024/03/10 00:03:09;;;;;;;11.60;8.52;;;;;;;;;;486250;28;1400;-75
2024/03/10 00:03:24;;;;;;;11.23;8.98;;;;;;;;;;494652;28;979;-74
2024/03/10 00:03:41;;;;;;;11.40;9.38;;;;;;;;;;491025;28;1096;-75
2024/03/10 00:04:01;;;;;;;10.73;8.95;;;;;;;;;;490621;28;961;-75
2024/03/10 00:04:17;;;;;;;10.60;8.65;;;;;;;;;;488805;28;1671;-75
2024/03/10 00:04:41;;;;;;;11.17;8.70;;;;;;;;;;495446;28;1263;-75
2024/03/10 00:05:06;;;;;;;14.20;8.98;;;;;;;;;;491329;28;1060;-76
2024/03/10 00:05:22;;;;;;;11.63;8.70;;;;;;;;;;494585;28;1653;-74
2024/03/10 00:05:39;;;;;;;11.27;8.70;;;;;;;;;;493245;28;1072;-74
2024/03/10 00:05:56;;;;;;;11.55;8.60;;;;;;;;;;491121;28;1306;-75
2024/03/10 00:06:15;;;;;;;10.63;8.40;;;;;;;;;;487526;28;1468;-75
2024/03/10 00:06:38;;;;;;;10.70;8.65;;;;;;;;;;493223;28;1801;-74
2024/03/10 00:06:55;;;;;;;11.15;8.80;;;;;;;;;;487759;28;1303;-74
2024/03/10 00:07:14;;;;;;;10.82;8.80;;;;;;;;;;487301;28;1714;-74
2024/03/10 00:07:33;;;;;;;11.25;8.77;;;;;;;;;;492940;28;1068;-74
2024/03/10 00:07:50;;;;;;;11.35;8.68;;;;;;;;;;485989;28;1224;-75
2024/03/10 00:08:07;;;;;;;9.85;8.23;;;;;;;;;;485090;28;1422;-74
2024/03/10 00:08:23;;;;;;;9.65;8.07;;;;;;;;;;491001;28;1601;-74
2024/03/10 00:08:57;;;;;;;10.37;8.40;;;;;;;;;;487330;28;1113;-75
2024/03/10 00:09:13;;;;;;;10.80;8.40;;;;;;;;;;482782;28;1077;-74
2024/03/10 00:09:30;;;;;;;11.23;8.52;;;;;;;;;;489057;28;1159;-75
2024/03/10 00:09:50;;;;;;;11.68;8.02;;;;;;;;;;483225;28;1514;-74
2024/03/10 00:10:10;;;;;;;10.43;7.70;;;;;;;;;;484294;28;1636;-75
2024/03/10 00:10:37;;;;;;;9.93;8.00;;;;;;;;;;491053;28;1828;-75
2024/03/10 00:10:57;;;;;;;10.35;8.02;;;;;;;;;;485755;28;1319;-75
2024/03/10 00:11:15;;;;;;;10.73;8.20;;;;;;;;;;486142;28;1684;-74
2024/03/10 00:11:54;;;;;;;10.52;8.15;;;;;;;;;;492720;28;1326;-75
2024/03/10 00:12:14;;;;;;;9.57;7.78;;;;;;;;;;488282;28;1261;-75
2024/03/10 00:12:30;;;;;;;10.32;7.88;;;;;;;;;;497129;28;1171;-74
2024/03/10 00:12:48;;;;;;;10.10;8.00;;;;;;;;;;485637;28;1324;-75
2024/03/10 00:13:05;;;;;;;9.77;7.85;;;;;;;;;;484636;28;1201;-74
2024/03/10 00:13:21;;;;;;;8.68;7.25;;;;;;;;;;488980;28;1100;-75
2024/03/10 00:13:41;;;;;;;8.63;7.25;;;;;;;;;;490655;28;1358;-75
2024/03/10 00:14:09;;;;;;;8.93;7.28;;;;;;;;;;487474;28;1056;-75
2024/03/10 00:14:26;;;;;;;9.45;7.50;;;;;;;;;;492200;28;1183;-74
2024/03/10 00:14:46;;;;;;;10.70;7.80;;;;;;;;;;490019;28;1018;-74
2024/03/10 00:15:06;;;;;;;10.38;8.05;;;;;;;;;;489971;28;1049;-75
2024/03/10 00:15:22;;;;;;;9.90;7.93;;;;;;;;;;491668;28;1589;-75
2024/03/10 00:15:41;;;;;;;10.27;7.72;;;;;;;;;;486810;28;2250;-75
2024/03/10 00:16:01;;;;;;;10.60;7.97;;;;;;;;;;487198;28;1584;-75
2024/03/10 00:16:16;;;;;;;9.52;7.75;;;;;;;;;;485656;28;1840;-74
2024/03/10 00:16:35;;;;;;;9.13;7.80;;;;;;;;;;490549;28;1361;-74
2024/03/10 00:16:55;;;;;;;9.85;8.23;;;;;;;;;;485958;28;1080;-75
2024/03/10 00:17:16;;;;;;;9.25;7.72;;;;;;;;;;489772;28;1006;-75
2024/03/10 00:17:32;;;;;;;10.02;7.97;;;;;;;;;;496409;28;1333;-75
2024/03/10 00:17:53;;;;;;;10.48;7.95;;;;;;;;;;489992;28;1122;-75
2024/03/10 00:18:13;;;;;;;10.07;8.00;;;;;;;;;;487570;28;1394;-75
2024/03/10 00:18:28;;;;;;;11.10;8.15;;;;;;;;;;496024;28;1198;-74
2024/03/10 00:18:45;;;;;;;11.13;8.10;;;;;;;;;;490607;28;1160;-74
2024/03/10 00:19:14;;;;;;;9.98;7.90;;;;;;;;;;491625;28;1022;-75
2024/03/10 00:19:30;;;;;;;10.43;8.10;;;;;;;;;;497414;28;1660;-74
2024/03/10 00:19:52;;;;;;;10.60;8.02;;;;;;;;;;488844;28;1452;-74
2024/03/10 00:20:11;;;;;;;10.32;8.10;;;;;;;;;;488248;28;1462;-75
2024/03/10 00:20:27;;;;;;;9.35;8.05;;;;;;;;;;493928;28;1822;-75
2024/03/10 00:20:46;;;;;;;9.30;7.67;;;;;;;;;;487694;28;1448;-74
2024/03/10 00:21:04;;;;;;;9.13;7.40;;;;;;;;;;485670;28;1314;-74
2024/03/10 00:21:20;;;;;;;9.20;7.57;;;;;;;;;;489784;28;978;-75
2024/03/10 00:21:36;;;;;;;9.80;7.68;;;;;;;;;;492549;28;994;-75
2024/03/10 00:21:54;;;;;;;9.98;7.70;;;;;;;;;;486898;28;1120;-76
2024/03/10 00:22:10;;;;;;;10.05;7.60;;;;;;;;;;491867;28;1008;-74
2024/03/10 00:22:26;;;;;;;9.30;7.55;;;;;;;;;;494192;28;989;-75
2024/03/10 00:22:43;;;;;;;8.77;7.70;;;;;;;;;;489114;28;1279;-74
2024/03/10 00:23:00;;;;;;;9.38;7.78;;;;;;;;;;485836;28;1560;-75
2024/03/10 00:23:16;;;;;;;9.43;7.53;;;;;;;;;;484247;28;1221;-75
2024/03/10 00:23:36;;;;;;;9.35;7.53;;;;;;;;;;493825;28;917;-75
2024/03/10 00:23:54;;;;;;;9.30;7.63;;;;;;;;;;487400;28;988;-75
2024/03/10 00:24:11;;;;;;;9.52;7.72;;;;;;;;;;486138;28;1497;-75
2024/03/10 00:24:27;;;;;;;9.00;7.30;;;;;;;;;;492718;28;1315;-75
2024/03/10 00:24:49;;;;;;;8.68;7.00;;;;;;;;;;490234;28;1208;-74
2024/03/10 00:25:09;;;;;;;10.45;7.50;;;;;;;;;;489063;28;1300;-75
2024/03/10 00:25:28;;;;;;;9.68;7.57;;;;;;;;;;493528;28;1842;-75
2024/03/10 00:25:45;;;;;;;10.27;7.70;;;;;;;;;;487474;28;1098;-74
2024/03/10 00:26:05;;;;;;;10.07;7.80;;;;;;;;;;485927;28;1339;-75
2024/03/10 00:26:21;;;;;;;9.35;7.70;;;;;;;;;;489239;28;1331;-75
2024/03/10 00:26:40;;;;;;;9.50;8.00;;;;;;;;;;489729;28;1240;-74
2024/03/10 00:27:07;;;;;;;10.23;8.07;;;;;;;;;;485307;28;1264;-74
2024/03/10 00:27:23;;;;;;;10.30;7.88;;;;;;;;;;487845;28;1690;-75
2024/03/10 00:27:39;;;;;;;10.03;8.07;;;;;;;;;;485130;28;1130;-75
2024/03/10 00:27:55;;;;;;;9.45;7.70;;;;;;;;;;484045;28;1111;-75
2024/03/10 00:28:16;;;;;;;9.30;7.47;;;;;;;;;;485378;28;1368;-75
2024/03/10 00:28:36;;;;;;;10.68;7.95;;;;;;;;;;495831;28;985;-75
2024/03/10 00:28:52;;;;;;;10.13;7.85;;;;;;;;;;488859;28;1131;-75
2024/03/10 00:29:09;;;;;;;9.70;7.78;;;;;;;;;;490504;28;1242;-74
2024/03/10 00:29:24;;;;;;;9.77;7.60;;;;;;;;;;494068;28;1139;-75
2024/03/10 00:30:09;;;;;;;10.10;7.50;;;;;;;;;;490429;28;1405;-74
2024/03/10 00:30:25;;;;;;;9.82;7.82;;;;;;;;;;494259;28;989;-75
2024/03/10 00:30:48;;;;;;;9.35;7.80;;;;;;;;;;488001;28;1228;-75
2024/03/10 00:31:09;;;;;;;9.57;7.43;;;;;;;;;;486776;28;1276;-74
2024/03/10 00:31:24;;;;;;;10.00;7.90;;;;;;;;;;494926;28;1050;-75
2024/03/10 00:31:40;;;;;;;9.77;7.85;;;;;;;;;;490296;28;1193;-74
2024/03/10 00:31:56;;;;;;;9.45;7.78;;;;;;;;;;487737;28;1247;-75
2024/03/10 00:32:16;;;;;;;9.35;7.55;;;;;;;;;;486340;28;1363;-75
2024/03/10 00:32:36;;;;;;;8.23;6.93;;;;;;;;;;493545;28;1056;-74
2024/03/10 00:32:55;;;;;;;8.80;7.30;;;;;;;;;;485467;28;1280;-74
2024/03/10 00:33:14;;;;;;;10.25;8.02;;;;;;;;;;486049;28;1222;-75
2024/03/10 00:33:30;;;;;;;10.52;7.80;;;;;;;;;;498478;28;1225;-74
2024/03/10 00:33:49;;;;;;;9.77;7.73;;;;;;;;;;488004;28;1199;-76
2024/03/10 00:34:05;;;;;;;9.30;7.57;;;;;;;;;;485014;28;1222;-74
2024/03/10 00:34:21;;;;;;;9.80;7.53;;;;;;;;;;489738;28;1981;-75
2024/03/10 00:34:43;;;;;;;10.20;7.60;;;;;;;;;;489406;28;1020;-75
2024/03/10 00:34:58;;;;;;;10.07;7.72;;;;;;;;;;490739;28;941;-75
2024/03/10 00:35:14;;;;;;;9.25;7.25;;;;;;;;;;489654;28;1218;-75
2024/03/10 00:35:36;;;;;;;8.25;6.82;;;;;;;;;;492769;28;1235;-75
2024/03/10 00:35:53;;;;;;;8.90;7.57;;;;;;;;;;487647;28;940;-74
2024/03/10 00:36:14;;;;;;;9.50;7.45;;;;;;;;;;490018;28;1491;-75
2024/03/10 00:36:31;;;;;;;9.63;7.57;;;;;;;;;;493754;28;1072;-75
2024/03/10 00:36:59;;;;;;;9.85;7.55;;;;;;;;;;487435;28;1542;-74
2024/03/10 00:37:16;;;;;;;9.85;7.57;;;;;;;;;;488175;28;1351;-75
2024/03/10 00:37:42;;;;;;;10.27;7.50;;;;;;;;;;497241;28;1480;-75
2024/03/10 00:38:02;;;;;;;9.27;7.50;;;;;;;;;;486930;28;1379;-75
2024/03/10 00:38:19;;;;;;;9.27;7.65;;;;;;;;;;490463;28;917;-75
2024/03/10 00:38:35;;;;;;;9.68;7.53;;;;;;;;;;491195;28;1138;-75
2024/03/10 00:38:57;;;;;;;9.75;7.43;;;;;;;;;;485064;28;1209;-75
2024/03/10 00:39:14;;;;;;;8.23;7.15;;;;;;;;;;487278;28;1095;-74
2024/03/10 00:39:30;;;;;;;8.30;7.35;;;;;;;;;;495634;28;1180;-75
2024/03/10 00:39:46;;;;;;;9.27;7.50;;;;;;;;;;487511;28;1727;-75
2024/03/10 00:40:23;;;;;;;9.48;7.32;;;;;;;;;;486788;28;1179;-74
2024/03/10 00:40:40;;;;;;;8.30;7.00;;;;;;;;;;486274;28;1736;-75
2024/03/10 00:41:02;;;;;;;8.73;7.38;;;;;;;;;;488938;28;1227;-74
2024/03/10 00:41:18;;;;;;;9.57;7.55;;;;;;;;;;489378;28;1600;-75
2024/03/10 00:41:35;;;;;;;10.20;7.88;;;;;;;;;;497121;28;867;-74
2024/03/10 00:41:51;;;;;;;10.70;7.85;;;;;;;;;;488673;28;1335;-74
2024/03/10 00:42:07;;;;;;;10.00;7.70;;;;;;;;;;490145;28;1019;-75
2024/03/10 00:42:23;;;;;;;9.30;7.40;;;;;;;;;;494101;28;1123;-75
2024/03/10 00:42:48;;;;;;;9.82;7.70;;;;;;;;;;489331;28;1303;-74
2024/03/10 00:43:04;;;;;;;9.30;7.88;;;;;;;;;;493280;28;1236;-75
2024/03/10 00:43:22;;;;;;;9.93;7.80;;;;;;;;;;493005;28;1341;-75
2024/03/10 00:43:38;;;;;;;10.50;7.50;;;;;;;;;;490912;28;1485;-74
2024/03/10 00:43:57;;;;;;;9.32;7.20;;;;;;;;;;487460;28;1137;-75
2024/03/10 00:44:14;;;;;;;8.75;7.32;;;;;;;;;;486030;28;1339;-75
2024/03/10 00:44:30;;;;;;;9.07;7.43;;;;;;;;;;493971;28;1243;-75
2024/03/10 00:44:46;;;;;;;9.38;7.47;;;;;;;;;;486893;28;1233;-75
2024/03/10 00:45:04;;;;;;;9.32;7.53;;;;;;;;;;487388;28;965;-74
2024/03/10 00:45:19;;;;;;;9.68;7.97;;;;;;;;;;487755;28;1303;-75
2024/03/10 00:45:39;;;;;;;9.63;7.97;;;;;;;;;;489994;28;1157;-74
2024/03/10 00:45:55;;;;;;;9.32;7.78;;;;;;;;;;487120;28;1057;-74
2024/03/10 00:46:13;;;;;;;9.90;7.93;;;;;;;;;;489072;28;997;-75
2024/03/10 00:46:30;;;;;;;9.57;7.53;;;;;;;;;;492223;28;1093;-74
2024/03/10 00:46:49;;;;;;;9.40;7.70;;;;;;;;;;486434;28;1133;-75
2024/03/10 00:47:08;;;;;;;10.35;7.90;;;;;;;;;;485431;28;1416;-74
2024/03/10 00:47:24;;;;;;;10.60;8.40;;;;;;;;;;492295;28;1230;-75
2024/03/10 00:47:40;;;;;;;10.52;8.45;;;;;;;;;;488629;28;959;-75
2024/03/10 00:48:02;;;;;;;10.15;7.88;;;;;;;;;;487296;28;1707;-75
2024/03/10 00:48:19;;;;;;;11.48;8.10;;;;;;;;;;487252;28;1149;-75
2024/03/10 00:48:43;;;;;;;10.20;7.78;;;;;;;;;;491242;28;1410;-75
2024/03/10 00:48:59;;;;;;;9.13;7.47;;;;;;;;;;486405;28;1161;-75
2024/03/10 00:49:15;;;;;;;9.10;7.40;;;;;;;;;;485287;28;1219;-75
2024/03/10 00:49:31;;;;;;;9.35;7.50;;;;;;;;;;491103;28;1356;-74
2024/03/10 00:49:47;;;;;;;9.30;7.43;;;;;;;;;;485243;28;1243;-74
2024/03/10 00:50:06;;;;;;;9.73;7.60;;;;;;;;;;488506;28;1000;-74
2024/03/10 00:50:22;;;;;;;10.35;8.00;;;;;;;;;;491135;28;1500;-75
2024/03/10 00:50:40;;;;;;;10.15;7.82;;;;;;;;;;488853;28;1134;-75
2024/03/10 00:50:59;;;;;;;11.02;7.70;;;;;;;;;;487996;28;1194;-75
2024/03/10 00:51:15;;;;;;;11.68;7.57;;;;;;;;;;489246;28;1132;-75
2024/03/10 00:51:31;;;;;;;10.53;7.53;;;;;;;;;;495519;28;997;-75
2024/03/10 00:51:48;;;;;;;9.60;7.50;;;;;;;;;;489424;28;1325;-75
2024/03/10 00:52:07;;;;;;;10.05;7.40;;;;;;;;;;487043;28;1297;-75
2024/03/10 00:52:23;;;;;;;10.07;7.70;;;;;;;;;;492555;28;1218;-75
2024/03/10 00:52:40;;;;;;;9.83;7.63;;;;;;;;;;488710;28;1214;-74
2024/03/10 00:52:56;;;;;;;9.10;7.40;;;;;;;;;;485500;28;1387;-75
2024/03/10 00:53:18;;;;;;;9.13;7.50;;;;;;;;;;485636;28;1277;-74
2024/03/10 00:53:37;;;;;;;9.68;7.60;;;;;;;;;;488532;28;1429;-75
2024/03/10 00:53:54;;;;;;;10.02;7.50;;;;;;;;;;485679;28;1300;-75
2024/03/10 00:54:10;;;;;;;9.73;7.63;;;;;;;;;;488392;28;2005;-74
2024/03/10 00:54:26;;;;;;;10.15;7.85;;;;;;;;;;496522;28;1693;-75
2024/03/10 00:54:48;;;;;;;10.18;8.02;;;;;;;;;;488716;28;1214;-74
2024/03/10 00:55:07;;;;;;;10.38;8.32;;;;;;;;;;489154;28;1331;-75
2024/03/10 00:55:23;;;;;;;10.73;8.20;;;;;;;;;;491098;28;1354;-76
2024/03/10 00:55:42;;;;;;;9.53;7.53;;;;;;;;;;489102;28;1287;-75
2024/03/10 00:55:59;;;;;;;8.85;7.18;;;;;;;;;;486646;28;1317;-75
2024/03/10 00:56:19;;;;;;;9.00;7.60;;;;;;;;;;485575;28;1163;-75
2024/03/10 00:56:38;;;;;;;9.57;7.43;;;;;;;;;;493309;28;1005;-75
2024/03/10 00:56:57;;;;;;;9.13;7.53;;;;;;;;;;488263;28;1033;-74
2024/03/10 00:57:14;;;;;;;9.63;7.65;;;;;;;;;;488597;28;1336;-75
2024/03/10 00:57:29;;;;;;;8.95;7.28;;;;;;;;;;496883;28;1395;-75
2024/03/10 00:57:46;;;;;;;8.95;7.20;;;;;;;;;;485379;28;1321;-75
2024/03/10 00:58:02;;;;;;;8.80;7.25;;;;;;;;;;488033;28;1228;-75
2024/03/10 00:58:18;;;;;;;8.65;7.20;;;;;;;;;;489938;28;1343;-75
2024/03/10 00:58:40;;;;;;;9.05;7.30;;;;;;;;;;494237;28;1340;-74
2024/03/10 00:58:59;;;;;;;9.13;7.63;;;;;;;;;;487643;28;984;-75
2024/03/10 00:59:16;;;;;;;10.23;8.10;;;;;;;;;;490805;28;1013;-75
2024/03/10 00:59:32;;;;;;;10.23;8.02;;;;;;;;;;494718;28;1388;-74
2024/03/10 00:59:48;;;;;;;9.30;7.40;;;;;;;;;;486850;28;1292;-75
2024/03/10 01:00:10;;;;;;;8.05;6.88;;;;;;;;;;488088;28;1128;-75
2024/03/10 01:00:26;;;;;;;8.75;7.30;;;;;;;;;;495107;28;1495;-75
2024/03/10 01:00:42;;;;;;;8.90;7.28;;;;;;;;;;488276;28;1369;-74
2024/03/10 01:01:02;;;;;;;9.07;7.13;;;;;;;;;;488881;28;1303;-75
2024/03/10 01:01:19;;;;;;;8.77;7.40;;;;;;;;;;489899;28;1172;-75
2024/03/10 01:01:34;;;;;;;9.38;7.97;;;;;;;;;;496367;28;1373;-75
2024/03/10 01:01:50;;;;;;;10.23;7.97;;;;;;;;;;489078;28;1053;-74
2024/03/10 01:02:07;;;;;;;10.05;7.72;;;;;;;;;;485970;28;1275;-74
2024/03/10 01:02:23;;;;;;;9.40;7.57;;;;;;;;;;490160;28;1211;-75
2024/03/10 01:02:40;;;;;;;9.07;7.57;;;;;;;;;;485014;28;1175;-74
2024/03/10 01:02:57;;;;;;;9.18;7.60;;;;;;;;;;485179;28;1420;-74
2024/03/10 01:03:15;;;;;;;10.30;7.70;;;;;;;;;;486082;28;1477;-74
2024/03/10 01:03:33;;;;;;;9.95;7.95;;;;;;;;;;490714;28;1238;-75
2024/03/10 01:03:51;;;;;;;10.43;8.20;;;;;;;;;;485502;28;1421;-74
2024/03/10 01:04:15;;;;;;;10.52;8.07;;;;;;;;;;485326;28;1393;-75
2024/03/10 01:04:33;;;;;;;10.40;8.30;;;;;;;;;;491793;28;1203;-74
2024/03/10 01:04:49;;;;;;;9.77;8.07;;;;;;;;;;484716;28;1236;-74
2024/03/10 01:05:06;;;;;;;9.65;7.82;;;;;;;;;;486036;28;1139;-75
2024/03/10 01:05:22;;;;;;;9.63;7.65;;;;;;;;;;490109;28;1221;-75
2024/03/10 01:05:39;;;;;;;9.90;7.75;;;;;;;;;;492726;28;1255;-74
2024/03/10 01:05:54;;;;;;;9.60;7.70;;;;;;;;;;494586;28;1053;-75
2024/03/10 01:06:12;;;;;;;9.55;7.35;;;;;;;;;;486230;28;1113;-75
2024/03/10 01:06:27;;;;;;;9.90;7.50;;;;;;;;;;491893;28;1222;-75
2024/03/10 01:06:47;;;;;;;10.13;7.60;;;;;;;;;;485586;28;1140;-75
2024/03/10 01:07:03;;;;;;;9.25;7.20;;;;;;;;;;485221;28;1299;-74
2024/03/10 01:07:19;;;;;;;9.07;7.20;;;;;;;;;;490470;28;1452;-75
2024/03/10 01:07:35;;;;;;;8.77;7.25;;;;;;;;;;492412;28;977;-74
2024/03/10 01:08:00;;;;;;;9.60;7.85;;;;;;;;;;488922;28;990;-75
2024/03/10 01:08:16;;;;;;;9.57;7.68;;;;;;;;;;489648;28;1365;-75
2024/03/10 01:08:32;;;;;;;10.07;7.85;;;;;;;;;;493470;28;1258;-75
2024/03/10 01:08:51;;;;;;;9.73;7.97;;;;;;;;;;487262;28;1207;-74
2024/03/10 01:09:08;;;;;;;9.65;7.80;;;;;;;;;;484549;28;1602;-74
2024/03/10 01:09:27;;;;;;;11.27;7.95;;;;;;;;;;491583;28;1575;-75
2024/03/10 01:09:44;;;;;;;10.40;7.78;;;;;;;;;;486378;28;1381;-75
2024/03/10 01:10:01;;;;;;;10.23;7.63;;;;;;;;;;486266;28;1068;-74
2024/03/10 01:10:17;;;;;;;9.88;7.65;;;;;;;;;;487982;28;1363;-75
2024/03/10 01:10:35;;;;;;;9.73;7.57;;;;;;;;;;495486;28;941;-74
2024/03/10 01:10:51;;;;;;;9.55;7.43;;;;;;;;;;488447;28;1281;-75
2024/03/10 01:11:08;;;;;;;10.20;7.82;;;;;;;;;;487403;28;1349;-75
2024/03/10 01:11:23;;;;;;;9.35;7.78;;;;;;;;;;491595;28;1012;-74
2024/03/10 01:11:50;;;;;;;8.57;7.45;;;;;;;;;;488332;28;1242;-74
2024/03/10 01:12:07;;;;;;;8.13;7.00;;;;;;;;;;489497;28;981;-75
2024/03/10 01:12:23;;;;;;;9.93;7.68;;;;;;;;;;495740;28;1135;-75
2024/03/10 01:12:39;;;;;;;10.60;8.00;;;;;;;;;;491212;28;1197;-74
2024/03/10 01:12:55;;;;;;;10.50;7.93;;;;;;;;;;489552;28;1135;-75
2024/03/10 01:13:15;;;;;;;9.93;7.88;;;;;;;;;;490072;28;1175;-74
2024/03/10 01:13:34;;;;;;;9.20;7.60;;;;;;;;;;494172;28;1259;-74
2024/03/10 01:13:56;;;;;;;9.32;7.72;;;;;;;;;;488054;28;1189;-74
2024/03/10 01:14:12;;;;;;;9.10;7.78;;;;;;;;;;487743;28;2762;-74
2024/03/10 01:14:28;;;;;;;9.15;7.65;;;;;;;;;;494284;28;946;-74
2024/03/10 01:14:44;;;;;;;9.73;7.93;;;;;;;;;;488925;28;1327;-75
2024/03/10 01:15:01;;;;;;;9.38;7.70;;;;;;;;;;487384;28;1748;-74
2024/03/10 01:15:16;;;;;;;8.73;7.32;;;;;;;;;;486979;28;1394;-76
2024/03/10 01:15:32;;;;;;;9.00;7.70;;;;;;;;;;492772;28;1065;-75
2024/03/10 01:15:52;;;;;;;8.98;7.78;;;;;;;;;;486674;28;1223;-74
2024/03/10 01:16:08;;;;;;;9.82;7.50;;;;;;;;;;485866;28;1678;-74
2024/03/10 01:16:23;;;;;;;10.18;7.80;;;;;;;;;;491662;28;1092;-75
2024/03/10 01:16:43;;;;;;;9.80;7.90;;;;;;;;;;489012;28;1180;-74
2024/03/10 01:17:04;;;;;;;10.13;8.00;;;;;;;;;;487150;28;972;-75
2024/03/10 01:17:20;;;;;;;9.50;7.75;;;;;;;;;;492476;28;1198;-75
2024/03/10 01:17:40;;;;;;;8.82;7.50;;;;;;;;;;488125;28;1118;-75
2024/03/10 01:17:56;;;;;;;10.15;8.00;;;;;;;;;;487951;28;1113;-74
2024/03/10 01:18:12;;;;;;;9.88;7.90;;;;;;;;;;488027;28;1327;-74
2024/03/10 01:18:29;;;;;;;8.98;7.32;;;;;;;;;;494765;28;968;-75
2024/03/10 01:18:44;;;;;;;9.43;7.40;;;;;;;;;;489432;28;1371;-74
2024/03/10 01:19:09;;;;;;;9.25;7.60;;;;;;;;;;487897;28;1439;-74
2024/03/10 01:19:26;;;;;;;9.82;8.07;;;;;;;;;;494969;28;1446;-75
2024/03/10 01:19:46;;;;;;;9.88;8.05;;;;;;;;;;488246;28;1194;-74
2024/03/10 01:20:04;;;;;;;9.82;7.90;;;;;;;;;;485625;28;1401;-75
2024/03/10 01:20:20;;;;;;;9.85;8.00;;;;;;;;;;489724;28;1251;-74
2024/03/10 01:20:36;;;;;;;8.82;7.47;;;;;;;;;;488793;28;1532;-75
2024/03/10 01:20:52;;;;;;;9.20;7.32;;;;;;;;;;486122;28;965;-75
2024/03/10 01:21:09;;;;;;;9.90;7.63;;;;;;;;;;486463;28;1406;-75
2024/03/10 01:21:25;;;;;;;9.93;7.93;;;;;;;;;;491337;28;1269;-75
2024/03/10 01:21:46;;;;;;;10.17;8.13;;;;;;;;;;487574;28;1017;-74
2024/03/10 01:22:02;;;;;;;9.48;7.72;;;;;;;;;;487994;28;1209;-74
2024/03/10 01:22:18;;;;;;;9.77;7.90;;;;;;;;;;491801;28;961;-75
2024/03/10 01:22:34;;;;;;;10.27;8.00;;;;;;;;;;498076;28;942;-74
2024/03/10 01:22:50;;;;;;;10.55;8.15;;;;;;;;;;491044;28;1309;-76
2024/03/10 01:23:06;;;;;;;11.05;8.05;;;;;;;;;;489241;28;1261;-74
2024/03/10 01:23:22;;;;;;;10.52;7.97;;;;;;;;;;494736;28;1200;-74
2024/03/10 01:23:38;;;;;;;10.10;8.20;;;;;;;;;;491963;28;1357;-75
2024/03/10 01:23:55;;;;;;;9.98;8.02;;;;;;;;;;487910;28;1137;-74
2024/03/10 01:24:11;;;;;;;10.02;7.80;;;;;;;;;;487810;28;1301;-75
2024/03/10 01:24:26;;;;;;;9.57;7.63;;;;;;;;;;495377;28;1243;-74
2024/03/10 01:24:42;;;;;;;9.30;7.53;;;;;;;;;;489301;28;1023;-75
2024/03/10 01:24:58;;;;;;;9.75;8.00;;;;;;;;;;487661;28;1199;-75
2024/03/10 01:25:14;;;;;;;10.10;8.07;;;;;;;;;;486912;28;1341;-74
2024/03/10 01:25:31;;;;;;;9.47;7.73;;;;;;;;;;495302;28;1021;-75
2024/03/10 01:25:47;;;;;;;9.30;7.55;;;;;;;;;;484706;28;1043;-74
2024/03/10 01:26:05;;;;;;;10.13;7.90;;;;;;;;;;484931;28;1236;-75
2024/03/10 01:26:20;;;;;;;9.35;7.72;;;;;;;;;;488703;28;1044;-75
2024/03/10 01:26:36;;;;;;;9.03;7.47;;;;;;;;;;489587;28;1191;-74
2024/03/10 01:26:53;;;;;;;8.68;7.28;;;;;;;;;;483978;28;1337;-74
2024/03/10 01:27:09;;;;;;;8.00;7.00;;;;;;;;;;485742;28;1271;-75
2024/03/10 01:27:25;;;;;;;8.38;7.28;;;;;;;;;;492278;28;1370;-75
2024/03/10 01:27:43;;;;;;;9.23;7.55;;;;;;;;;;487188;28;1317;-75
2024/03/10 01:27:59;;;;;;;9.55;7.47;;;;;;;;;;488597;28;1077;-75
2024/03/10 01:28:15;;;;;;;9.20;7.50;;;;;;;;;;487581;28;1394;-75
2024/03/10 01:28:32;;;;;;;8.67;7.27;;;;;;;;;;493862;28;992;-74
2024/03/10 01:28:47;;;;;;;8.13;6.78;;;;;;;;;;489055;28;1143;-75
2024/03/10 01:29:04;;;;;;;8.45;6.72;;;;;;;;;;489466;28;1031;-74
2024/03/10 01:29:21;;;;;;;9.05;7.18;;;;;;;;;;491316;28;1075;-75
2024/03/10 01:29:38;;;;;;;9.98;7.78;;;;;;;;;;491599;28;1280;-74
2024/03/10 01:29:54;;;;;;;9.88;8.00;;;;;;;;;;487488;28;1200;-75
2024/03/10 01:30:11;;;;;;;9.70;7.60;;;;;;;;;;488956;28;1200;-74
2024/03/10 01:30:27;;;;;;;10.50;7.53;;;;;;;;;;494561;28;1167;-75
2024/03/10 01:30:43;;;;;;;9.05;7.55;;;;;;;;;;486541;28;1713;-74
2024/03/10 01:30:59;;;;;;;9.13;7.55;;;;;;;;;;485772;28;968;-74
2024/03/10 01:31:18;;;;;;;8.77;7.33;;;;;;;;;;486520;28;1045;-75
2024/03/10 01:31:37;;;;;;;8.65;7.47;;;;;;;;;;488358;28;1463;-74
2024/03/10 01:31:53;;;;;;;9.10;7.40;;;;;;;;;;486252;28;1173;-74
2024/03/10 01:32:12;;;;;;;8.80;7.32;;;;;;;;;;487385;28;1062;-74
2024/03/10 01:32:27;;;;;;;8.95;7.82;;;;;;;;;;493167;28;1324;-75
2024/03/10 01:32:44;;;;;;;9.13;7.80;;;;;;;;;;487925;28;1058;-74
2024/03/10 01:33:00;;;;;;;9.00;7.45;;;;;;;;;;488340;28;1097;-74
2024/03/10 01:33:17;;;;;;;8.55;6.97;;;;;;;;;;488428;28;1346;-75
2024/03/10 01:33:33;;;;;;;8.73;7.00;;;;;;;;;;495844;28;1272;-74
2024/03/10 01:33:49;;;;;;;9.00;7.35;;;;;;;;;;489596;28;1211;-74
2024/03/10 01:34:09;;;;;;;9.07;7.50;;;;;;;;;;488228;28;1300;-75
2024/03/10 01:34:25;;;;;;;9.13;7.30;;;;;;;;;;495607;28;1276;-74
2024/03/10 01:34:42;;;;;;;9.13;7.47;;;;;;;;;;488325;28;1273;-76
2024/03/10 01:34:58;;;;;;;9.20;7.80;;;;;;;;;;485699;28;1439;-74
2024/03/10 01:35:14;;;;;;;9.48;7.63;;;;;;;;;;485304;28;1083;-74
2024/03/10 01:35:29;;;;;;;9.20;7.38;;;;;;;;;;496017;28;1314;-74
2024/03/10 01:35:45;;;;;;;8.73;7.00;;;;;;;;;;488055;28;950;-74
2024/03/10 01:36:04;;;;;;;8.73;6.88;;;;;;;;;;489441;28;1051;-75
2024/03/10 01:36:19;;;;;;;8.60;6.85;;;;;;;;;;490793;28;1289;-75
2024/03/10 01:36:38;;;;;;;8.00;6.80;;;;;;;;;;491679;28;910;-74
2024/03/10 01:36:55;;;;;;;7.80;6.60;;;;;;;;;;488083;28;1217;-75
2024/03/10 01:37:11;;;;;;;7.85;6.60;;;;;;;;;;487466;28;1322;-75
2024/03/10 01:37:26;;;;;;;8.18;7.05;;;;;;;;;;496018;28;917;-75
2024/03/10 01:37:42;;;;;;;9.23;7.78;;;;;;;;;;488627;28;1180;-75
2024/03/10 01:37:58;;;;;;;10.05;7.85;;;;;;;;;;488860;28;1012;-75
2024/03/10 01:38:14;;;;;;;10.63;7.72;;;;;;;;;;489386;28;1200;-74
2024/03/10 01:38:30;;;;;;;10.03;7.77;;;;;;;;;;494628;28;937;-75
2024/03/10 01:38:48;;;;;;;9.48;7.75;;;;;;;;;;487709;28;1239;-75
2024/03/10 01:39:04;;;;;;;9.63;7.88;;;;;;;;;;490155;28;921;-74
2024/03/10 01:39:20;;;;;;;9.25;7.95;;;;;;;;;;490262;28;1337;-75
2024/03/10 01:39:36;;;;;;;9.48;7.97;;;;;;;;;;489292;28;1156;-75
2024/03/10 01:39:52;;;;;;;11.00;7.75;;;;;;;;;;488060;28;1188;-74
2024/03/10 01:40:12;;;;;;;11.00;7.72;;;;;;;;;;486591;28;1208;-75
2024/03/10 01:40:28;;;;;;;10.73;7.90;;;;;;;;;;494743;28;969;-75
2024/03/10 01:40:46;;;;;;;10.80;8.18;;;;;;;;;;488571;28;1131;-74
2024/03/10 01:41:03;;;;;;;11.05;8.23;;;;;;;;;;487408;28;1272;-74
2024/03/10 01:41:18;;;;;;;10.63;8.32;;;;;;;;;;489021;28;1145;-75
2024/03/10 01:41:35;;;;;;;11.45;8.48;;;;;;;;;;491189;28;1044;-74
2024/03/10 01:41:53;;;;;;;11.32;8.40;;;;;;;;;;487814;28;1064;-75
2024/03/10 01:42:11;;;;;;;10.68;8.38;;;;;;;;;;490247;28;1012;-74
2024/03/10 01:42:27;;;;;;;10.95;8.35;;;;;;;;;;495715;28;1263;-74
2024/03/10 01:43:01;;;;;;;10.77;8.13;;;;;;;;;;489661;28;1095;-75
2024/03/10 01:43:16;;;;;;;9.10;7.53;;;;;;;;;;490610;28;955;-75
2024/03/10 01:43:36;;;;;;;8.73;7.40;;;;;;;;;;494781;28;1333;-74
2024/03/10 01:43:52;;;;;;;8.88;7.57;;;;;;;;;;489470;28;1158;-75
2024/03/10 01:44:08;;;;;;;9.83;8.20;;;;;;;;;;490160;28;1166;-74
2024/03/10 01:44:26;;;;;;;11.07;8.53;;;;;;;;;;495427;28;928;-75
2024/03/10 01:44:42;;;;;;;12.10;8.60;;;;;;;;;;489373;28;1287;-75
2024/03/10 01:44:59;;;;;;;10.98;8.48;;;;;;;;;;490205;28;1388;-74
2024/03/10 01:45:15;;;;;;;10.40;8.10;;;;;;;;;;488514;28;1435;-75
2024/03/10 01:45:34;;;;;;;10.85;8.10;;;;;;;;;;496229;28;1399;-75
2024/03/10 01:46:06;;;;;;;10.65;8.48;;;;;;;;;;487715;28;1347;-75
2024/03/10 01:46:23;;;;;;;10.55;8.32;;;;;;;;;;491921;28;1667;-75
2024/03/10 01:46:39;;;;;;;10.13;8.15;;;;;;;;;;490573;28;1042;-74
2024/03/10 01:46:56;;;;;;;10.55;8.60;;;;;;;;;;487524;28;943;-74
2024/03/10 01:47:12;;;;;;;10.65;8.63;;;;;;;;;;486937;28;1389;-75
2024/03/10 01:47:29;;;;;;;10.57;8.30;;;;;;;;;;495407;28;1081;-75
2024/03/10 01:47:48;;;;;;;10.60;8.13;;;;;;;;;;488823;28;1356;-75
2024/03/10 01:48:05;;;;;;;10.82;8.38;;;;;;;;;;489871;28;1176;-75
2024/03/10 01:48:22;;;;;;;10.18;8.23;;;;;;;;;;493071;28;1552;-75
2024/03/10 01:48:46;;;;;;;9.55;8.02;;;;;;;;;;489829;28;1279;-75
2024/03/10 01:49:04;;;;;;;10.15;8.30;;;;;;;;;;487360;28;1212;-75
2024/03/10 01:49:19;;;;;;;10.13;8.27;;;;;;;;;;489372;28;1222;-74
2024/03/10 01:49:36;;;;;;;10.13;8.37;;;;;;;;;;490405;28;1291;-75
2024/03/10 01:49:52;;;;;;;9.70;7.95;;;;;;;;;;487239;28;1044;-74
2024/03/10 01:50:09;;;;;;;9.57;7.80;;;;;;;;;;487445;28;1223;-75
2024/03/10 01:50:25;;;;;;;9.13;7.88;;;;;;;;;;494741;28;1263;-75
2024/03/10 01:50:41;;;;;;;10.50;7.90;;;;;;;;;;489913;28;981;-74
2024/03/10 01:50:57;;;;;;;11.20;7.82;;;;;;;;;;489756;28;1123;-74